Time;durP1;ratioP1;P1;durP2;ratioP2;P2;SDS_P1;SDS_P2;PMS_P1;PMS_P2;Temp;Humidity;BMP_temperature;BMP_pressure;BME280_temperature;BME280_humidity;BME280_pressure;Samples;Min_cycle;Max_cycle;Signal;HPM_P1;HPM_P2
2022/07/14 00:01:02;;;;;;;13.75;2.85;;;14.70;78.80;;;;;;5052050;28;20239;-88
2022/07/14 00:03:28;;;;;;;12.63;2.88;;;14.70;78.50;;;;;;5037297;28;20178;-87
2022/07/14 00:05:54;;;;;;;13.38;3.22;;;14.80;78.50;;;;;;5052229;28;20173;-88
2022/07/14 00:08:19;;;;;;;10.70;2.80;;;14.70;78.20;;;;;;5036399;28;20303;-87
2022/07/14 00:10:45;;;;;;;14.38;3.25;;;14.70;78.20;;;;;;5035083;28;20540;-88
2022/07/14 00:13:11;;;;;;;15.38;3.53;;;14.70;78.10;;;;;;5051768;28;20550;-87
2022/07/14 00:15:36;;;;;;;11.57;2.92;;;14.60;78.00;;;;;;5052266;28;20653;-87
2022/07/14 00:18:02;;;;;;;9.50;3.55;;;14.50;78.00;;;;;;5036285;28;20635;-88
2022/07/14 00:20:28;;;;;;;12.13;2.93;;;14.50;77.90;;;;;;5035888;28;20184;-88
2022/07/14 00:22:57;;;;;;;12.23;3.08;;;14.50;78.00;;;;;;5051011;28;20240;-87
2022/07/14 00:25:26;;;;;;;9.90;2.80;;;14.40;78.20;;;;;;5051232;28;20259;-87
2022/07/14 00:27:52;;;;;;;7.93;2.38;;;14.50;78.40;;;;;;5051106;28;20260;-88
2022/07/14 00:30:18;;;;;;;8.73;2.70;;;14.40;79.80;;;;;;5051050;28;20272;-88
2022/07/14 00:32:44;;;;;;;10.30;2.23;;;14.30;80.70;;;;;;5050964;28;20283;-88
2022/07/14 00:35:09;;;;;;;10.13;3.25;;;14.30;80.90;;;;;;5035667;28;20220;-88
2022/07/14 00:37:35;;;;;;;10.57;2.53;;;14.30;80.90;;;;;;5034551;28;20223;-88
2022/07/14 00:40:04;;;;;;;14.03;3.10;;;14.40;80.90;;;;;;5049571;28;20548;-88
2022/07/14 00:42:34;;;;;;;15.35;3.25;;;14.40;81.20;;;;;;5050685;28;20295;-88
2022/07/14 00:45:02;;;;;;;16.15;3.00;;;14.30;82.10;;;;;;5050975;28;20169;-87
2022/07/14 00:47:28;;;;;;;13.93;3.55;;;14.40;82.00;;;;;;5035448;28;20549;-84
2022/07/14 00:49:55;;;;;;;11.37;2.63;;;14.40;81.70;;;;;;5035281;28;20180;-87
2022/07/14 00:52:23;;;;;;;15.03;3.43;;;14.50;81.60;;;;;;5050498;28;20196;-87
2022/07/14 00:54:48;;;;;;;10.95;3.17;;;14.50;81.80;;;;;;5050478;28;20185;-86
2022/07/14 00:57:14;;;;;;;11.48;3.25;;;14.50;81.60;;;;;;5035180;28;20604;-86
2022/07/14 00:59:40;;;;;;;11.35;2.78;;;14.40;81.70;;;;;;5035138;28;20181;-86
2022/07/14 01:02:05;;;;;;;10.10;3.13;;;14.40;82.00;;;;;;5050860;28;20247;-89
2022/07/14 01:04:31;;;;;;;15.45;3.42;;;14.40;81.90;;;;;;5051206;28;20180;-88
2022/07/14 01:06:56;;;;;;;11.60;3.17;;;14.40;81.50;;;;;;5034772;28;20257;-89
2022/07/14 01:09:22;;;;;;;14.07;3.23;;;14.40;81.60;;;;;;5050225;28;20181;-90
2022/07/14 01:11:47;;;;;;;12.07;3.27;;;14.30;82.40;;;;;;5050133;28;20208;-89
2022/07/14 01:14:13;;;;;;;5.87;2.13;;;14.30;82.60;;;;;;5034715;28;20180;-89
2022/07/14 01:16:38;;;;;;;10.00;2.73;;;14.30;82.00;;;;;;5050063;28;20184;-89
2022/07/14 01:19:04;;;;;;;13.23;3.23;;;14.20;81.90;;;;;;5033473;28;20199;-89
2022/07/14 01:21:30;;;;;;;11.95;3.33;;;14.20;81.90;;;;;;5034390;28;20205;-89
2022/07/14 01:23:55;;;;;;;16.83;3.60;;;14.20;82.10;;;;;;5049889;28;20239;-89
2022/07/14 01:26:21;;;;;;;13.30;3.67;;;14.20;82.00;;;;;;5033551;28;20173;-89
2022/07/14 01:28:46;;;;;;;9.43;2.67;;;14.20;82.30;;;;;;5033253;28;20552;-89
2022/07/14 01:31:12;;;;;;;15.13;3.67;;;14.10;81.90;;;;;;5033069;28;20177;-89
2022/07/14 01:33:37;;;;;;;21.13;4.30;;;14.10;81.50;;;;;;5033105;28;20184;-89
2022/07/14 01:36:03;;;;;;;15.03;3.83;;;14.00;83.60;;;;;;5034224;28;20172;-89
2022/07/14 01:38:28;;;;;;;12.03;3.70;;;14.00;84.10;;;;;;5049633;28;20185;-89
2022/07/14 01:40:54;;;;;;;13.37;3.60;;;13.90;84.00;;;;;;5033006;28;20197;-89
2022/07/14 01:43:20;;;;;;;10.10;3.23;;;13.80;84.60;;;;;;5049497;28;20548;-90
2022/07/14 01:45:46;;;;;;;15.77;3.17;;;13.80;84.50;;;;;;5049892;28;20165;-89
2022/07/14 01:48:11;;;;;;;10.47;3.30;;;13.80;84.10;;;;;;5032937;28;20199;-89
2022/07/14 01:50:37;;;;;;;12.43;3.00;;;13.50;84.90;;;;;;5048878;28;20550;-89
2022/07/14 01:53:02;;;;;;;14.93;3.33;;;13.50;85.20;;;;;;5033081;28;20189;-89
2022/07/14 01:55:28;;;;;;;11.07;3.13;;;13.60;84.90;;;;;;5032684;28;20267;-89
2022/07/14 01:57:53;;;;;;;11.03;2.90;;;13.50;84.50;;;;;;5049302;28;20179;-90
2022/07/14 02:00:19;;;;;;;10.03;3.00;;;13.30;84.90;;;;;;5049363;28;20631;-89
2022/07/14 02:02:45;;;;;;;8.10;2.73;;;13.40;85.20;;;;;;5049146;28;20567;-89
2022/07/14 02:05:10;;;;;;;18.93;3.67;;;13.50;84.70;;;;;;5033766;28;20176;-89
2022/07/14 02:07:36;;;;;;;10.67;3.10;;;13.50;84.40;;;;;;5049185;28;20192;-89
2022/07/14 02:12:47;;;;;;;11.53;2.93;;;13.40;85.00;;;;;;5033880;28;20242;-89
2022/07/14 02:15:13;;;;;;;8.93;2.77;;;13.40;84.10;;;;;;5033672;28;20173;-89
2022/07/14 02:17:39;;;;;;;12.70;2.87;;;13.30;83.70;;;;;;5048906;28;20172;-89
2022/07/14 02:20:05;;;;;;;15.63;3.07;;;13.40;83.30;;;;;;5048997;28;20623;-89
2022/07/14 02:22:31;;;;;;;12.10;2.70;;;13.30;83.00;;;;;;5048771;28;20216;-89
2022/07/14 02:24:56;;;;;;;9.77;2.47;;;13.40;82.90;;;;;;5048874;28;20654;-89
2022/07/14 02:27:22;;;;;;;10.20;2.40;;;13.40;83.00;;;;;;5032429;28;20263;-89
2022/07/14 02:29:48;;;;;;;11.57;2.93;;;13.30;83.50;;;;;;5033249;28;20172;-89
2022/07/14 02:32:14;;;;;;;9.43;2.13;;;13.20;84.10;;;;;;5033664;28;20195;-89
2022/07/14 02:34:40;;;;;;;7.20;2.43;;;13.20;84.50;;;;;;5048665;28;20212;-89
2022/07/14 02:37:05;;;;;;;7.30;2.00;;;13.20;84.40;;;;;;5033356;28;20184;-89
2022/07/14 02:39:31;;;;;;;15.23;2.37;;;13.30;83.90;;;;;;5048915;28;20181;-89
2022/07/14 02:41:56;;;;;;;13.37;2.47;;;13.30;83.70;;;;;;5048534;28;20212;-89
2022/07/14 02:44:22;;;;;;;10.67;2.67;;;13.30;83.50;;;;;;5033287;28;20547;-89
2022/07/14 02:46:47;;;;;;;10.00;3.10;;;13.30;83.40;;;;;;5048609;28;20234;-89
2022/07/14 02:49:13;;;;;;;11.67;2.40;;;13.30;83.20;;;;;;5048519;28;20180;-89
2022/07/14 02:51:38;;;;;;;9.33;2.60;;;13.30;83.10;;;;;;5048519;28;20200;-88
2022/07/14 02:54:04;;;;;;;11.00;2.70;;;13.30;83.10;;;;;;5048518;28;20579;-89
2022/07/14 02:56:30;;;;;;;5.50;2.20;;;13.30;83.00;;;;;;5033159;28;20753;-89
2022/07/14 02:58:56;;;;;;;6.17;2.30;;;13.30;82.90;;;;;;5048610;28;20185;-88
2022/07/14 03:01:21;;;;;;;12.07;2.57;;;13.40;82.90;;;;;;5048359;28;20212;-89
2022/07/14 03:03:47;;;;;;;12.40;2.70;;;13.40;82.80;;;;;;5051622;28;20627;-89
2022/07/14 03:06:16;;;;;;;9.23;2.47;;;13.40;83.00;;;;;;5052597;28;20177;-89
2022/07/14 03:08:42;;;;;;;11.73;2.90;;;13.40;83.10;;;;;;5037888;28;20173;-89
2022/07/14 03:11:08;;;;;;;8.17;2.20;;;13.50;83.20;;;;;;5037267;28;20196;-89
2022/07/14 03:13:35;;;;;;;15.77;2.90;;;13.40;83.20;;;;;;5052424;28;20181;-89
2022/07/14 03:16:01;;;;;;;6.87;2.20;;;13.50;83.10;;;;;;5035790;28;20212;-89
2022/07/14 03:18:27;;;;;;;13.67;3.17;;;13.40;83.50;;;;;;5035632;28;20230;-89
2022/07/14 03:20:53;;;;;;;6.83;2.60;;;13.40;84.10;;;;;;5052077;28;20185;-89
2022/07/14 03:23:20;;;;;;;10.53;2.67;;;13.40;84.50;;;;;;5036702;28;20232;-90
2022/07/14 03:25:45;;;;;;;14.77;3.00;;;13.50;84.50;;;;;;5036715;28;20184;-89
2022/07/14 03:28:11;;;;;;;8.10;2.53;;;13.60;84.50;;;;;;5052113;28;20184;-89
2022/07/14 03:30:37;;;;;;;12.47;2.37;;;13.80;84.70;;;;;;5052172;28;20246;-89
2022/07/14 03:33:03;;;;;;;6.10;2.20;;;13.90;84.10;;;;;;5051961;28;20224;-89
2022/07/14 03:35:29;;;;;;;7.43;2.27;;;13.90;83.30;;;;;;5035295;28;20224;-89
2022/07/14 03:37:54;;;;;;;12.47;2.53;;;13.80;82.80;;;;;;5036866;28;20188;-89
2022/07/14 03:40:20;;;;;;;10.70;2.67;;;13.90;82.20;;;;;;5036421;28;20777;-89
2022/07/14 03:42:46;;;;;;;12.13;2.47;;;14.00;81.70;;;;;;5036365;28;20262;-88
2022/07/14 03:45:12;;;;;;;15.43;3.30;;;14.00;81.30;;;;;;5036355;28;20589;-89
2022/07/14 03:47:37;;;;;;;13.17;2.90;;;14.10;80.90;;;;;;5051726;28;20177;-89
2022/07/14 03:50:03;;;;;;;10.17;2.23;;;14.30;80.80;;;;;;5036417;28;20175;-89
2022/07/14 03:52:29;;;;;;;10.67;2.50;;;14.50;80.30;;;;;;5051579;28;20228;-89
2022/07/14 03:54:55;;;;;;;9.53;3.33;;;14.80;80.20;;;;;;5035117;28;20254;-89
2022/07/14 03:57:20;;;;;;;9.60;2.70;;;15.00;79.40;;;;;;5051878;28;20173;-89
2022/07/14 03:59:46;;;;;;;6.63;2.00;;;15.10;78.40;;;;;;5036032;28;20177;-89
2022/07/14 04:02:12;;;;;;;7.20;1.97;;;15.10;78.10;;;;;;5051478;28;20244;-89
2022/07/14 04:04:39;;;;;;;8.07;2.00;;;15.10;78.20;;;;;;5034807;28;20177;-90
2022/07/14 04:07:05;;;;;;;6.33;1.93;;;15.10;77.70;;;;;;5034841;28;20289;-89
2022/07/14 04:09:31;;;;;;;8.80;2.40;;;15.10;77.30;;;;;;5051324;28;20659;-89
2022/07/14 04:11:57;;;;;;;8.53;2.03;;;15.20;77.90;;;;;;5035857;28;20736;-90
2022/07/14 04:14:23;;;;;;;8.53;2.67;;;15.30;77.30;;;;;;5050881;28;20202;-89
2022/07/14 04:16:49;;;;;;;10.43;2.23;;;15.30;77.00;;;;;;5051297;28;20623;-89
2022/07/14 04:19:15;;;;;;;6.67;1.80;;;15.50;77.40;;;;;;5051237;28;20670;-89
2022/07/14 04:21:41;;;;;;;8.90;2.30;;;15.50;76.80;;;;;;5051041;28;20208;-89
2022/07/14 04:24:06;;;;;;;7.47;2.10;;;15.40;76.60;;;;;;5051129;28;20172;-89
2022/07/14 04:26:32;;;;;;;8.63;2.57;;;15.50;77.30;;;;;;5050891;28;20184;-89
2022/07/14 04:28:58;;;;;;;7.80;1.90;;;15.40;77.40;;;;;;5034380;28;20180;-89
2022/07/14 04:31:24;;;;;;;9.17;3.13;;;15.30;77.70;;;;;;5050913;28;20196;-89
2022/07/14 04:33:50;;;;;;;11.10;2.47;;;15.20;77.80;;;;;;5050932;28;20183;-89
2022/07/14 04:36:16;;;;;;;7.10;2.37;;;14.80;79.20;;;;;;5050887;28;20172;-89
2022/07/14 04:38:42;;;;;;;7.47;2.37;;;14.60;80.70;;;;;;5050795;28;20184;-89
2022/07/14 04:41:07;;;;;;;10.43;2.50;;;14.60;81.30;;;;;;5050368;28;20219;-90
2022/07/14 04:43:33;;;;;;;8.00;2.00;;;14.30;82.10;;;;;;5035288;28;20205;-90
2022/07/14 04:45:59;;;;;;;5.57;1.80;;;14.30;83.00;;;;;;5050671;28;20176;-90
2022/07/14 04:48:24;;;;;;;11.57;2.70;;;14.00;84.40;;;;;;5050765;28;20546;-90
2022/07/14 04:53:36;;;;;;;11.53;2.83;;;13.80;86.20;;;;;;5035805;28;20219;-89
2022/07/14 04:56:02;;;;;;;6.03;2.13;;;13.90;86.40;;;;;;5050491;28;20181;-89
2022/07/14 04:58:27;;;;;;;12.00;3.00;;;14.00;86.40;;;;;;5050361;28;20184;-89
2022/07/14 05:00:58;;;;;;;9.63;2.33;;;14.10;86.40;;;;;;5050371;28;20195;-89
2022/07/14 05:03:24;;;;;;;9.10;2.37;;;14.20;86.50;;;;;;5050428;28;20172;-89
2022/07/14 05:05:49;;;;;;;7.83;2.63;;;14.20;86.60;;;;;;5050406;28;20169;-89
2022/07/14 05:08:15;;;;;;;7.43;2.73;;;14.20;86.50;;;;;;5033608;28;20201;-90
2022/07/14 05:10:40;;;;;;;14.17;2.90;;;14.30;86.40;;;;;;5050199;28;20176;-89
2022/07/14 05:13:06;;;;;;;9.67;2.23;;;14.30;86.30;;;;;;5034643;28;20193;-89
2022/07/14 05:15:31;;;;;;;7.80;2.30;;;14.30;86.40;;;;;;5034055;28;20181;-89
2022/07/14 05:17:57;;;;;;;7.20;2.27;;;14.30;85.90;;;;;;5050019;28;20176;-90
2022/07/14 05:20:23;;;;;;;5.73;2.10;;;14.30;86.20;;;;;;5034662;28;20168;-89
2022/07/14 05:22:48;;;;;;;10.50;2.33;;;14.40;86.20;;;;;;5050113;28;20212;-89
2022/07/14 05:25:14;;;;;;;7.97;2.00;;;14.50;86.00;;;;;;5033926;28;20244;-89
2022/07/14 05:27:41;;;;;;;7.90;2.80;;;14.50;85.60;;;;;;5034467;28;20617;-89
2022/07/14 05:30:08;;;;;;;8.37;1.77;;;14.70;85.60;;;;;;5034397;28;20260;-89
2022/07/14 05:32:37;;;;;;;8.63;2.87;;;14.70;85.10;;;;;;5049639;28;20203;-89
2022/07/14 05:35:04;;;;;;;6.70;1.80;;;14.70;84.20;;;;;;5049784;28;20669;-89
2022/07/14 05:37:30;;;;;;;7.97;1.90;;;14.80;84.10;;;;;;5049715;28;20211;-89
2022/07/14 05:39:56;;;;;;;8.07;2.00;;;14.90;84.10;;;;;;5049607;28;20196;-89
2022/07/14 05:42:22;;;;;;;9.53;1.93;;;15.00;84.00;;;;;;5034123;28;20200;-89
2022/07/14 05:44:48;;;;;;;13.73;2.53;;;15.00;83.30;;;;;;5034174;28;20196;-89
2022/07/14 05:47:14;;;;;;;6.37;1.73;;;15.00;82.80;;;;;;5032849;28;20263;-89
2022/07/14 05:49:40;;;;;;;7.97;2.00;;;15.00;82.50;;;;;;5034359;28;20197;-89
2022/07/14 05:52:06;;;;;;;7.80;1.77;;;15.20;82.30;;;;;;5049286;28;20635;-89
2022/07/14 05:54:32;;;;;;;10.90;2.00;;;15.20;81.90;;;;;;5049419;28;20205;-89
2022/07/14 05:56:58;;;;;;;4.93;1.70;;;15.20;81.20;;;;;;5032747;28;20559;-89
2022/07/14 05:59:23;;;;;;;4.85;1.50;;;15.40;81.40;;;;;;5049325;28;20177;-89
2022/07/14 06:01:49;;;;;;;8.43;2.20;;;15.50;81.80;;;;;;5049144;28;20220;-90
2022/07/14 06:04:14;;;;;;;12.20;1.87;;;15.40;80.70;;;;;;5032668;28;20176;-90
2022/07/14 06:06:45;;;;;;;5.40;1.55;;;15.50;80.30;;;;;;5034100;28;20176;-90
2022/07/14 06:09:11;;;;;;;5.87;1.50;;;15.60;80.70;;;;;;5049315;28;20221;-90
2022/07/14 06:11:36;;;;;;;6.22;1.50;;;15.60;80.30;;;;;;5049103;28;20288;-90
2022/07/14 06:14:04;;;;;;;6.07;1.58;;;15.70;80.40;;;;;;5049027;28;20643;-90
2022/07/14 06:16:30;;;;;;;7.10;1.70;;;15.70;78.70;;;;;;5049157;28;20230;-90
2022/07/14 06:18:56;;;;;;;9.02;1.48;;;15.70;78.50;;;;;;5032367;28;20544;-90
2022/07/14 06:21:21;;;;;;;6.72;1.70;;;15.90;78.90;;;;;;5048951;28;20785;-91
2022/07/14 06:23:47;;;;;;;3.75;1.40;;;16.10;78.20;;;;;;5032498;28;20175;-90
2022/07/14 06:26:12;;;;;;;7.63;1.55;;;16.10;76.60;;;;;;5033675;28;20216;-89
2022/07/14 06:28:38;;;;;;;8.13;1.65;;;16.00;75.90;;;;;;5033686;28;20184;-89
2022/07/14 06:31:04;;;;;;;9.38;1.27;;;15.90;76.20;;;;;;5049142;28;20656;-90
2022/07/14 06:33:30;;;;;;;18.27;3.38;;;16.10;76.90;;;;;;5049278;28;20177;-90
2022/07/14 06:35:56;;;;;;;5.47;1.50;;;16.20;75.90;;;;;;5049361;28;20180;-90
2022/07/14 06:38:21;;;;;;;10.48;1.67;;;16.20;75.90;;;;;;5049526;28;20215;-89
2022/07/14 06:40:47;;;;;;;6.63;1.30;;;16.40;76.60;;;;;;5049406;28;20196;-89
2022/07/14 06:43:13;;;;;;;9.88;1.67;;;16.20;75.90;;;;;;5048808;28;20203;-90
2022/07/14 06:45:39;;;;;;;6.43;1.23;;;16.30;74.70;;;;;;5049949;28;20173;-89
2022/07/14 06:48:05;;;;;;;8.15;1.38;;;16.30;75.80;;;;;;5048680;28;20256;-90
2022/07/14 06:50:31;;;;;;;5.30;1.10;;;16.30;76.00;;;;;;5033286;28;20176;-90
2022/07/14 06:52:56;;;;;;;8.57;1.20;;;16.40;75.40;;;;;;5048672;28;20193;-90
2022/07/14 06:55:22;;;;;;;5.25;1.38;;;16.70;76.00;;;;;;5048684;28;20558;-90
2022/07/14 06:57:47;;;;;;;9.32;1.63;;;16.70;73.60;;;;;;5032069;28;20180;-90
2022/07/14 07:00:14;;;;;;;7.65;1.30;;;16.50;73.20;;;;;;5032074;28;20179;-90
2022/07/14 07:02:40;;;;;;;5.47;1.38;;;16.60;74.10;;;;;;5033088;28;20639;-90
2022/07/14 07:07:51;;;;;;;8.10;1.70;;;16.70;74.20;;;;;;5033664;28;20164;-89
2022/07/14 07:10:17;;;;;;;4.68;1.02;;;16.70;73.10;;;;;;5048411;28;20176;-90
2022/07/14 07:12:43;;;;;;;7.32;1.30;;;16.50;73.50;;;;;;5048602;28;20193;-89
2022/07/14 07:15:08;;;;;;;9.30;1.50;;;16.20;73.90;;;;;;5033283;28;20658;-90
2022/07/14 07:17:34;;;;;;;4.10;1.20;;;16.20;74.30;;;;;;5048728;28;20177;-90
2022/07/14 07:20:01;;;;;;;6.25;1.25;;;16.30;72.70;;;;;;5049459;28;20223;-91
2022/07/14 07:22:26;;;;;;;4.00;0.90;;;16.50;73.20;;;;;;5048123;28;20713;-90
2022/07/14 07:24:52;;;;;;;3.95;1.30;;;16.70;72.20;;;;;;5049400;28;20173;-90
2022/07/14 07:27:18;;;;;;;7.80;1.30;;;16.70;70.30;;;;;;5048517;28;20180;-89
2022/07/14 07:29:43;;;;;;;4.95;1.00;;;16.80;71.70;;;;;;5033220;28;20696;-89
2022/07/14 07:32:11;;;;;;;3.25;1.05;;;16.90;70.30;;;;;;5032800;28;20224;-89
2022/07/14 07:34:37;;;;;;;6.95;1.05;;;16.90;68.50;;;;;;5031751;28;20219;-88
2022/07/14 07:37:03;;;;;;;4.35;1.10;;;17.10;69.10;;;;;;5048403;28;20640;-88
2022/07/14 07:39:29;;;;;;;6.30;1.63;;;17.10;68.50;;;;;;5031679;28;20222;-88
2022/07/14 07:41:58;;;;;;;6.72;1.30;;;17.20;68.10;;;;;;5031650;28;20251;-89
2022/07/14 07:44:23;;;;;;;5.68;1.30;;;17.00;67.20;;;;;;5032979;28;20197;-89
2022/07/14 07:46:49;;;;;;;5.18;1.38;;;16.70;65.10;;;;;;5048332;28;20199;-88
2022/07/14 07:49:14;;;;;;;3.35;1.05;;;16.80;67.10;;;;;;5050014;28;20547;-90
2022/07/14 07:51:40;;;;;;;7.32;1.48;;;17.00;67.20;;;;;;5051667;28;20358;-89
2022/07/14 07:54:05;;;;;;;6.13;1.08;;;17.40;67.70;;;;;;5051778;28;20240;-89
2022/07/14 07:56:31;;;;;;;6.55;1.27;;;17.60;67.30;;;;;;5051806;28;20176;-88
2022/07/14 07:58:57;;;;;;;9.02;1.90;;;17.80;67.20;;;;;;5053683;28;20191;-89
2022/07/14 08:01:22;;;;;;;4.13;1.10;;;17.90;65.90;;;;;;5039271;28;20295;-88
2022/07/14 08:03:48;;;;;;;6.63;1.30;;;17.80;66.20;;;;;;5034953;28;20192;-89
2022/07/14 08:06:13;;;;;;;5.05;1.58;;;17.90;65.20;;;;;;5035568;28;20710;-89
2022/07/14 08:08:39;;;;;;;5.00;1.48;;;17.80;64.50;;;;;;5052176;28;20560;-88
2022/07/14 08:11:05;;;;;;;2.75;1.27;;;17.60;65.70;;;;;;5052081;28;20666;-89
2022/07/14 08:13:30;;;;;;;6.55;1.40;;;17.70;65.90;;;;;;5051454;28;20181;-89
2022/07/14 08:15:57;;;;;;;4.18;1.25;;;17.80;64.90;;;;;;5036325;28;20236;-88
2022/07/14 08:18:23;;;;;;;3.42;0.95;;;18.00;66.60;;;;;;5036572;28;20169;-90
2022/07/14 08:20:49;;;;;;;7.88;1.38;;;18.20;63.50;;;;;;5036375;28;20195;-89
2022/07/14 08:23:15;;;;;;;7.55;1.50;;;18.20;65.30;;;;;;5051887;28;20701;-88
2022/07/14 08:25:40;;;;;;;5.10;1.20;;;18.40;63.20;;;;;;5051593;28;20169;-88
2022/07/14 08:28:06;;;;;;;5.95;1.45;;;18.30;62.50;;;;;;5052174;28;20210;-90
2022/07/14 08:30:32;;;;;;;7.22;1.33;;;18.30;62.10;;;;;;5035437;28;20180;-87
2022/07/14 08:32:57;;;;;;;6.45;1.40;;;18.50;62.50;;;;;;5034978;28;20250;-87
2022/07/14 08:35:25;;;;;;;6.28;1.35;;;18.40;61.60;;;;;;5034559;28;20193;-87
2022/07/14 08:37:52;;;;;;;9.25;1.10;;;18.80;63.60;;;;;;5050951;28;20238;-88
2022/07/14 08:40:20;;;;;;;5.97;1.42;;;19.20;62.30;;;;;;5050963;28;20628;-87
2022/07/14 08:42:49;;;;;;;5.63;1.33;;;19.50;63.10;;;;;;5035378;28;20201;-89
2022/07/14 08:45:21;;;;;;;5.63;1.50;;;18.90;62.90;;;;;;5050750;28;20525;-89
2022/07/14 08:47:47;;;;;;;2.45;1.10;;;18.70;62.10;;;;;;5050715;28;20164;-89
2022/07/14 08:50:16;;;;;;;4.13;1.00;;;18.60;61.30;;;;;;5050967;28;20180;-89
2022/07/14 08:52:43;;;;;;;4.75;0.95;;;18.80;59.30;;;;;;5035581;28;20745;-88
2022/07/14 08:55:10;;;;;;;3.45;0.90;;;18.90;62.80;;;;;;5036229;28;20694;-87
2022/07/14 08:57:37;;;;;;;4.45;1.27;;;19.40;61.80;;;;;;5051519;28;20181;-86
2022/07/14 09:00:08;;;;;;;2.92;1.00;;;19.50;60.00;;;;;;5034812;28;20176;-88
2022/07/14 09:02:34;;;;;;;5.05;1.23;;;19.70;59.50;;;;;;5036171;28;20216;-86
2022/07/14 09:04:59;;;;;;;3.97;0.90;;;19.90;58.90;;;;;;5035460;28;20169;-87
2022/07/14 09:07:31;;;;;;;2.80;0.70;;;19.80;58.60;;;;;;5035464;28;20663;-87
2022/07/14 09:10:01;;;;;;;6.75;1.27;;;20.00;58.90;;;;;;5035996;28;20251;-88
2022/07/14 09:12:29;;;;;;;4.10;1.60;;;20.50;56.70;;;;;;5050300;28;20201;-88
2022/07/14 09:17:55;;;;;;;4.03;1.10;;;20.60;56.40;;;;;;5035334;28;20168;-88
2022/07/14 09:20:23;;;;;;;5.95;0.80;;;19.70;56.00;;;;;;5034646;28;20165;-87
2022/07/14 09:22:57;;;;;;;4.72;1.25;;;19.50;59.00;;;;;;5035408;28;20216;-88
2022/07/14 09:25:24;;;;;;;8.30;1.60;;;19.20;58.70;;;;;;5053098;28;20248;-87
2022/07/14 09:27:50;;;;;;;4.45;1.33;;;19.30;59.50;;;;;;5053229;28;20176;-88
2022/07/14 09:30:16;;;;;;;4.38;1.00;;;19.50;59.40;;;;;;5053801;28;20191;-88
2022/07/14 09:32:48;;;;;;;5.03;1.10;;;19.30;60.40;;;;;;5034440;28;20199;-90
2022/07/14 09:35:17;;;;;;;4.03;1.00;;;19.50;60.70;;;;;;5050462;28;20593;-89
2022/07/14 09:37:44;;;;;;;3.78;1.15;;;19.80;57.50;;;;;;5050274;28;20200;-88
2022/07/14 09:40:13;;;;;;;5.32;1.35;;;20.00;60.10;;;;;;5049608;28;20207;-88
2022/07/14 09:42:56;;;;;;;5.78;1.00;;;20.00;59.30;;;;;;5034072;28;20586;-89
2022/07/14 09:45:29;;;;;;;8.82;1.10;;;20.50;57.70;;;;;;5050021;28;20165;-90
2022/07/14 09:48:16;;;;;;;5.40;1.40;;;20.10;59.00;;;;;;5034618;28;20161;-90
2022/07/14 09:50:50;;;;;;;3.92;1.10;;;20.20;58.90;;;;;;5051393;28;20530;-89
2022/07/14 09:53:33;;;;;;;3.33;1.08;;;19.70;58.70;;;;;;5051837;28;20218;-88
2022/07/14 09:56:01;;;;;;;4.40;0.80;;;20.00;60.20;;;;;;5049423;28;20251;-87
2022/07/14 09:58:31;;;;;;;5.22;0.95;;;19.70;58.90;;;;;;5051473;28;20183;-91
2022/07/14 10:01:03;;;;;;;7.07;1.17;;;19.80;59.80;;;;;;5055015;28;20247;-91
2022/07/14 10:03:30;;;;;;;3.10;0.95;;;19.80;59.30;;;;;;5050735;28;20703;-91
2022/07/14 10:05:58;;;;;;;2.05;0.68;;;20.00;60.20;;;;;;5051158;28;20219;-90
2022/07/14 10:08:31;;;;;;;3.08;1.10;;;19.70;57.40;;;;;;5051603;28;20646;-89
2022/07/14 10:10:59;;;;;;;3.55;0.93;;;19.40;58.90;;;;;;5034103;28;20165;-90
2022/07/14 10:13:25;;;;;;;5.45;1.50;;;19.70;58.90;;;;;;5049909;28;20180;-90
2022/07/14 10:15:53;;;;;;;3.65;0.90;;;19.70;58.90;;;;;;5051265;28;20270;-90
2022/07/14 10:18:20;;;;;;;3.15;0.90;;;19.80;59.40;;;;;;5051611;28;20224;-87
2022/07/14 10:20:48;;;;;;;2.42;0.90;;;19.80;61.00;;;;;;5052755;28;20250;-89
2022/07/14 10:23:14;;;;;;;3.38;0.88;;;19.50;59.00;;;;;;5060268;28;20220;-89
2022/07/14 10:25:41;;;;;;;2.25;0.85;;;19.30;58.50;;;;;;5058290;28;20157;-89
2022/07/14 10:28:07;;;;;;;4.47;0.90;;;19.50;59.60;;;;;;5063292;28;20259;-88
2022/07/14 10:30:38;;;;;;;2.10;0.90;;;19.80;59.30;;;;;;5061253;28;20200;-88
2022/07/14 10:33:40;;;;;;;5.43;1.40;;;20.30;59.00;;;;;;5055806;28;20196;-88
2022/07/14 10:36:25;;;;;;;2.08;0.93;;;20.00;59.60;;;;;;5066693;28;20233;-88
2022/07/14 10:39:00;;;;;;;2.33;0.82;;;19.90;59.00;;;;;;5058819;28;20531;-89
2022/07/14 10:41:47;;;;;;;7.40;1.52;;;19.80;58.50;;;;;;5065617;28;20215;-88
2022/07/14 10:44:19;;;;;;;3.65;1.10;;;19.90;57.60;;;;;;5053419;28;20705;-88
2022/07/14 10:46:47;;;;;;;2.30;0.90;;;19.60;59.60;;;;;;5038944;28;20193;-88
2022/07/14 10:49:15;;;;;;;6.00;1.10;;;19.90;59.60;;;;;;5050241;28;20310;-88
2022/07/14 10:51:49;;;;;;;3.92;0.80;;;20.00;59.70;;;;;;5049122;28;20734;-88
2022/07/14 10:54:32;;;;;;;4.22;1.67;;;20.30;58.50;;;;;;5032698;28;20177;-88
2022/07/14 10:57:11;;;;;;;8.68;1.20;;;20.20;58.30;;;;;;5032844;28;20215;-89
2022/07/14 10:59:38;;;;;;;2.88;0.80;;;20.10;59.00;;;;;;5049484;28;20554;-89
2022/07/14 11:02:12;;;;;;;4.57;1.00;;;20.10;58.40;;;;;;5033807;28;20586;-89
2022/07/14 11:04:56;;;;;;;5.47;1.00;;;20.20;58.50;;;;;;5048936;28;20234;-88
2022/07/14 11:07:35;;;;;;;5.30;1.10;;;20.30;57.30;;;;;;5049187;28;20642;-88
2022/07/14 11:10:21;;;;;;;1.02;0.60;;;20.10;57.90;;;;;;5049086;28;20168;-89
2022/07/14 11:13:05;;;;;;;5.07;0.90;;;20.20;57.60;;;;;;5048774;28;20742;-88
2022/07/14 11:15:40;;;;;;;1.88;1.10;;;20.20;57.20;;;;;;5048850;28;20267;-88
2022/07/14 11:18:18;;;;;;;6.10;0.90;;;20.20;58.10;;;;;;5034181;28;20550;-88
2022/07/14 11:20:49;;;;;;;3.10;1.00;;;20.30;59.70;;;;;;5033435;28;20226;-88
2022/07/14 11:23:23;;;;;;;7.18;1.30;;;20.20;58.50;;;;;;5049158;28;20686;-89
2022/07/14 11:25:53;;;;;;;5.15;0.77;;;20.20;57.70;;;;;;5053524;28;20164;-88
2022/07/14 11:28:37;;;;;;;6.75;0.73;;;20.00;56.60;;;;;;5052775;28;20199;-88
2022/07/14 11:31:15;;;;;;;3.70;0.95;;;20.20;58.00;;;;;;5052509;28;20169;-88
2022/07/14 11:36:30;;;;;;;6.20;0.90;;;19.80;55.90;;;;;;5038043;28;20213;-89
2022/07/14 11:39:15;;;;;;;3.00;0.90;;;20.10;55.80;;;;;;5036180;28;20552;-89
2022/07/14 11:42:02;;;;;;;2.03;0.77;;;20.00;56.00;;;;;;5052365;28;20646;-89
2022/07/14 11:44:38;;;;;;;6.63;1.10;;;20.00;55.00;;;;;;5052745;28;20168;-88
2022/07/14 11:47:07;;;;;;;3.55;0.52;;;20.30;56.70;;;;;;5052518;28;20195;-88
2022/07/14 11:49:34;;;;;;;2.53;0.70;;;19.90;55.90;;;;;;5052304;28;20172;-89
2022/07/14 11:52:02;;;;;;;1.75;0.82;;;19.50;56.60;;;;;;5037472;28;20249;-89
2022/07/14 11:54:27;;;;;;;1.90;0.82;;;19.80;55.10;;;;;;5053865;28;20234;-87
2022/07/14 11:57:06;;;;;;;1.38;0.70;;;19.80;55.90;;;;;;5038793;28;20176;-88
2022/07/14 11:59:32;;;;;;;4.00;1.02;;;19.80;55.50;;;;;;5038304;28;20169;-89
2022/07/14 12:02:09;;;;;;;2.92;0.98;;;20.00;55.00;;;;;;5051971;28;20209;-88
2022/07/14 12:04:34;;;;;;;2.38;0.70;;;20.10;54.90;;;;;;5052198;28;20172;-89
2022/07/14 12:07:00;;;;;;;4.88;1.10;;;19.90;55.30;;;;;;5052684;28;20172;-89
2022/07/14 12:09:32;;;;;;;4.32;1.05;;;19.50;56.20;;;;;;5052020;28;20173;-88
2022/07/14 12:11:58;;;;;;;4.50;0.90;;;19.40;56.70;;;;;;5051923;28;20197;-89
2022/07/14 12:14:24;;;;;;;4.32;0.75;;;19.50;57.10;;;;;;5051864;28;20272;-90
2022/07/14 12:16:50;;;;;;;2.58;1.00;;;19.50;57.20;;;;;;5052150;28;20737;-88
2022/07/14 12:19:26;;;;;;;2.17;0.82;;;19.30;57.20;;;;;;5053418;28;20271;-88
2022/07/14 12:21:59;;;;;;;1.98;0.90;;;19.20;56.90;;;;;;5052193;28;20247;-88
2022/07/14 12:24:25;;;;;;;2.55;0.60;;;19.00;57.00;;;;;;5052236;28;20161;-88
2022/07/14 12:26:51;;;;;;;3.50;0.80;;;18.80;58.10;;;;;;5052485;28;20539;-89
2022/07/14 12:29:17;;;;;;;3.15;1.67;;;19.20;57.60;;;;;;5036292;28;20168;-89
2022/07/14 12:31:43;;;;;;;3.03;1.05;;;19.10;57.40;;;;;;5036261;28;20192;-88
2022/07/14 12:34:08;;;;;;;1.15;0.70;;;18.90;58.80;;;;;;5051580;28;20180;-89
2022/07/14 12:36:35;;;;;;;2.40;0.70;;;19.10;59.10;;;;;;5035088;28;20184;-89
2022/07/14 12:39:04;;;;;;;3.22;0.80;;;19.20;59.80;;;;;;5051887;28;20181;-88
2022/07/14 12:41:30;;;;;;;3.75;0.73;;;19.30;60.00;;;;;;5051061;28;20212;-88
2022/07/14 12:43:58;;;;;;;6.57;1.30;;;19.20;59.10;;;;;;5051202;28;20255;-89
2022/07/14 12:46:24;;;;;;;1.75;0.60;;;19.10;60.40;;;;;;5051604;28;20173;-88
2022/07/14 12:48:50;;;;;;;4.90;1.30;;;19.10;61.30;;;;;;5035883;28;20230;-88
2022/07/14 12:51:19;;;;;;;2.90;1.00;;;19.30;61.40;;;;;;5035743;28;20169;-88
2022/07/14 12:54:01;;;;;;;5.47;1.10;;;19.50;61.50;;;;;;5035968;28;20176;-88
2022/07/14 12:56:51;;;;;;;2.67;0.80;;;19.80;60.70;;;;;;5036271;28;20149;-86
2022/07/14 12:59:22;;;;;;;3.80;1.50;;;19.70;60.20;;;;;;5027639;28;20633;-85